Mc Gehee, Arkansas
Current Conditions -  °F | °C
As of 2:53 PM on Friday 19 Dec 2014 (Local Time) from KGLH Reporting Station
Light Rain Light Rain  
Wind Chill: 42°   Ceiling: 8000
Heat Index: 47°   Visibility: 6mi
Dew Point: 42°   Wind: 10mph
Humidity: 83%   Direction: 60°ENE
Pressure: 30.16"   Gusts: NA
Location:  33.7652°N, 91.2745°W
Report Text: KGLH 192053Z AUTO 06009KT 6SM -RA OVC080 08/06 A3016 RMK AO2 RAE1954B11 SLP220 P0000 60000 T00830056 56028
Loading
Personal Weather Stations






























Interactive Weather Map New forecast layout! Learn more

10-Day Weather Forecast

Advertisements
Track Severe Weather on mobile